sensor_id;sensor_type;location;lat;lon;timestamp;temperature;humidity
6792;DHT22;3433;48.730;9.108;2022-10-17T00:01:30;16.00;99.90
6792;DHT22;3433;48.730;9.108;2022-10-17T00:03:57;16.00;99.90
6792;DHT22;3433;48.730;9.108;2022-10-17T00:06:24;15.90;99.90
6792;DHT22;3433;48.730;9.108;2022-10-17T00:08:51;15.90;99.90
6792;DHT22;3433;48.730;9.108;2022-10-17T00:11:20;15.90;99.90
6792;DHT22;3433;48.730;9.108;2022-10-17T00:13:50;15.80;99.90
6792;DHT22;3433;48.730;9.108;2022-10-17T00:16:23;15.80;99.90
6792;DHT22;3433;48.730;9.108;2022-10-17T00:18:50;15.70;99.90
6792;DHT22;3433;48.730;9.108;2022-10-17T00:21:18;15.70;99.90
6792;DHT22;3433;48.730;9.108;2022-10-17T00:23:46;15.70;99.90
6792;DHT22;3433;48.730;9.108;2022-10-17T00:26:13;15.60;99.90
6792;DHT22;3433;48.730;9.108;2022-10-17T00:28:41;15.60;99.90
6792;DHT22;3433;48.730;9.108;2022-10-17T00:31:09;15.60;99.90
6792;DHT22;3433;48.730;9.108;2022-10-17T00:33:36;15.50;99.90
6792;DHT22;3433;48.730;9.108;2022-10-17T00:36:06;15.50;99.90
6792;DHT22;3433;48.730;9.108;2022-10-17T00:38:33;15.50;99.90
6792;DHT22;3433;48.730;9.108;2022-10-17T00:41:01;15.50;99.90
6792;DHT22;3433;48.730;9.108;2022-10-17T00:43:28;15.40;99.90
6792;DHT22;3433;48.730;9.108;2022-10-17T00:45:55;15.40;99.90
6792;DHT22;3433;48.730;9.108;2022-10-17T00:48:24;15.30;99.90
6792;DHT22;3433;48.730;9.108;2022-10-17T00:50:51;15.30;99.90
6792;DHT22;3433;48.730;9.108;2022-10-17T00:53:18;15.30;99.90
6792;DHT22;3433;48.730;9.108;2022-10-17T00:55:48;15.20;99.90
6792;DHT22;3433;48.730;9.108;2022-10-17T00:58:17;15.20;99.90
6792;DHT22;3433;48.730;9.108;2022-10-17T01:00:46;15.20;99.90
6792;DHT22;3433;48.730;9.108;2022-10-17T01:03:13;15.10;99.90
6792;DHT22;3433;48.730;9.108;2022-10-17T01:05:42;15.10;99.90
6792;DHT22;3433;48.730;9.108;2022-10-17T01:08:09;15.10;99.90
6792;DHT22;3433;48.730;9.108;2022-10-17T01:10:43;15.10;99.90
6792;DHT22;3433;48.730;9.108;2022-10-17T01:13:20;15.00;99.90
6792;DHT22;3433;48.730;9.108;2022-10-17T01:15:57;15.00;99.90
6792;DHT22;3433;48.730;9.108;2022-10-17T01:18:35;15.00;99.90
6792;DHT22;3433;48.730;9.108;2022-10-17T01:21:32;14.90;99.90
6792;DHT22;3433;48.730;9.108;2022-10-17T01:27:32;14.80;99.90
6792;DHT22;3433;48.730;9.108;2022-10-17T01:30:16;14.80;99.90
6792;DHT22;3433;48.730;9.108;2022-10-17T01:32:48;14.70;99.90
6792;DHT22;3433;48.730;9.108;2022-10-17T01:35:20;14.70;99.90
6792;DHT22;3433;48.730;9.108;2022-10-17T01:37:55;14.70;99.90
6792;DHT22;3433;48.730;9.108;2022-10-17T01:40:26;14.70;99.90
6792;DHT22;3433;48.730;9.108;2022-10-17T01:42:56;14.60;99.90
6792;DHT22;3433;48.730;9.108;2022-10-17T01:45:28;14.60;99.90
6792;DHT22;3433;48.730;9.108;2022-10-17T01:48:03;14.60;99.90
6792;DHT22;3433;48.730;9.108;2022-10-17T01:50:33;14.60;99.90
6792;DHT22;3433;48.730;9.108;2022-10-17T01:53:05;14.60;99.90
6792;DHT22;3433;48.730;9.108;2022-10-17T01:55:35;14.60;99.90
6792;DHT22;3433;48.730;9.108;2022-10-17T01:58:07;14.60;99.90
6792;DHT22;3433;48.730;9.108;2022-10-17T02:00:37;14.50;99.90
6792;DHT22;3433;48.730;9.108;2022-10-17T02:03:11;14.50;99.90
6792;DHT22;3433;48.730;9.108;2022-10-17T02:05:40;14.50;99.90
6792;DHT22;3433;48.730;9.108;2022-10-17T02:08:08;14.50;99.90
6792;DHT22;3433;48.730;9.108;2022-10-17T02:10:38;14.40;99.90
6792;DHT22;3433;48.730;9.108;2022-10-17T02:13:12;14.40;99.90
6792;DHT22;3433;48.730;9.108;2022-10-17T02:16:02;14.40;99.90
6792;DHT22;3433;48.730;9.108;2022-10-17T02:18:52;14.30;99.90
6792;DHT22;3433;48.730;9.108;2022-10-17T02:21:30;14.30;99.90
6792;DHT22;3433;48.730;9.108;2022-10-17T02:24:04;14.30;99.90
6792;DHT22;3433;48.730;9.108;2022-10-17T02:26:36;14.30;99.90
6792;DHT22;3433;48.730;9.108;2022-10-17T02:29:09;14.30;99.90
6792;DHT22;3433;48.730;9.108;2022-10-17T02:31:42;14.20;99.90
6792;DHT22;3433;48.730;9.108;2022-10-17T02:34:13;14.20;99.90
6792;DHT22;3433;48.730;9.108;2022-10-17T02:36:48;14.20;99.90
6792;DHT22;3433;48.730;9.108;2022-10-17T02:39:18;14.20;99.90
6792;DHT22;3433;48.730;9.108;2022-10-17T02:41:47;14.20;99.90
6792;DHT22;3433;48.730;9.108;2022-10-17T02:44:15;14.20;99.90
6792;DHT22;3433;48.730;9.108;2022-10-17T02:46:44;14.20;99.90
6792;DHT22;3433;48.730;9.108;2022-10-17T02:49:17;14.20;99.90
6792;DHT22;3433;48.730;9.108;2022-10-17T02:51:51;14.10;99.90
6792;DHT22;3433;48.730;9.108;2022-10-17T02:54:30;14.10;99.90
6792;DHT22;3433;48.730;9.108;2022-10-17T02:57:06;14.10;99.90
6792;DHT22;3433;48.730;9.108;2022-10-17T02:59:36;14.10;99.90
6792;DHT22;3433;48.730;9.108;2022-10-17T03:02:06;14.10;99.90
6792;DHT22;3433;48.730;9.108;2022-10-17T03:04:34;14.10;99.90
6792;DHT22;3433;48.730;9.108;2022-10-17T03:07:01;14.10;99.90
6792;DHT22;3433;48.730;9.108;2022-10-17T03:09:28;14.10;99.90
6792;DHT22;3433;48.730;9.108;2022-10-17T03:11:55;14.00;99.90
6792;DHT22;3433;48.730;9.108;2022-10-17T03:14:22;14.00;99.90
6792;DHT22;3433;48.730;9.108;2022-10-17T03:16:49;14.00;99.90
6792;DHT22;3433;48.730;9.108;2022-10-17T03:19:16;14.00;99.90
6792;DHT22;3433;48.730;9.108;2022-10-17T03:21:44;14.00;99.90
6792;DHT22;3433;48.730;9.108;2022-10-17T03:24:11;14.00;99.90
6792;DHT22;3433;48.730;9.108;2022-10-17T03:26:38;14.00;99.90
6792;DHT22;3433;48.730;9.108;2022-10-17T03:29:05;13.90;99.90
6792;DHT22;3433;48.730;9.108;2022-10-17T03:31:32;13.90;99.90
6792;DHT22;3433;48.730;9.108;2022-10-17T03:34:00;13.90;99.90
6792;DHT22;3433;48.730;9.108;2022-10-17T03:36:27;13.90;99.90
6792;DHT22;3433;48.730;9.108;2022-10-17T03:38:55;13.80;99.90
6792;DHT22;3433;48.730;9.108;2022-10-17T03:41:22;13.80;99.90
6792;DHT22;3433;48.730;9.108;2022-10-17T03:43:51;13.80;99.90
6792;DHT22;3433;48.730;9.108;2022-10-17T03:46:18;13.90;99.90
6792;DHT22;3433;48.730;9.108;2022-10-17T03:48:48;13.80;99.90
6792;DHT22;3433;48.730;9.108;2022-10-17T03:51:15;13.90;99.90
6792;DHT22;3433;48.730;9.108;2022-10-17T03:53:42;13.80;99.90
6792;DHT22;3433;48.730;9.108;2022-10-17T03:56:12;13.80;99.90
6792;DHT22;3433;48.730;9.108;2022-10-17T03:58:39;13.80;99.90
6792;DHT22;3433;48.730;9.108;2022-10-17T04:01:08;13.80;99.90
6792;DHT22;3433;48.730;9.108;2022-10-17T04:03:35;13.70;99.90
6792;DHT22;3433;48.730;9.108;2022-10-17T04:06:04;13.70;99.90
6792;DHT22;3433;48.730;9.108;2022-10-17T04:08:32;13.70;99.90
6792;DHT22;3433;48.730;9.108;2022-10-17T04:10:59;13.70;99.90
6792;DHT22;3433;48.730;9.108;2022-10-17T04:13:28;13.70;99.90
6792;DHT22;3433;48.730;9.108;2022-10-17T04:15:56;13.70;99.90
6792;DHT22;3433;48.730;9.108;2022-10-17T04:18:23;13.60;99.90
6792;DHT22;3433;48.730;9.108;2022-10-17T04:20:50;13.60;99.90
6792;DHT22;3433;48.730;9.108;2022-10-17T04:23:17;13.60;99.90
6792;DHT22;3433;48.730;9.108;2022-10-17T04:25:44;13.60;99.90
6792;DHT22;3433;48.730;9.108;2022-10-17T04:28:11;13.50;99.90
6792;DHT22;3433;48.730;9.108;2022-10-17T04:30:40;13.60;99.90
6792;DHT22;3433;48.730;9.108;2022-10-17T04:33:07;13.50;99.90
6792;DHT22;3433;48.730;9.108;2022-10-17T04:35:34;13.60;99.90
6792;DHT22;3433;48.730;9.108;2022-10-17T04:38:01;13.50;99.90
6792;DHT22;3433;48.730;9.108;2022-10-17T04:40:27;13.50;99.90
6792;DHT22;3433;48.730;9.108;2022-10-17T04:42:54;13.50;99.90
6792;DHT22;3433;48.730;9.108;2022-10-17T04:45:21;13.50;99.90
6792;DHT22;3433;48.730;9.108;2022-10-17T04:47:49;13.50;99.90
6792;DHT22;3433;48.730;9.108;2022-10-17T04:50:17;13.50;99.90
6792;DHT22;3433;48.730;9.108;2022-10-17T04:52:43;13.50;99.90
6792;DHT22;3433;48.730;9.108;2022-10-17T04:55:10;13.50;99.90
6792;DHT22;3433;48.730;9.108;2022-10-17T04:57:37;13.50;99.90
6792;DHT22;3433;48.730;9.108;2022-10-17T05:00:05;13.50;99.90
6792;DHT22;3433;48.730;9.108;2022-10-17T05:02:34;13.50;99.90
6792;DHT22;3433;48.730;9.108;2022-10-17T05:05:02;13.40;99.90
6792;DHT22;3433;48.730;9.108;2022-10-17T05:07:29;13.40;99.90
6792;DHT22;3433;48.730;9.108;2022-10-17T05:09:56;13.50;99.90
6792;DHT22;3433;48.730;9.108;2022-10-17T05:12:23;13.50;99.90
6792;DHT22;3433;48.730;9.108;2022-10-17T05:14:51;13.40;99.90
6792;DHT22;3433;48.730;9.108;2022-10-17T05:17:17;13.50;99.90
6792;DHT22;3433;48.730;9.108;2022-10-17T05:19:44;13.50;99.90
6792;DHT22;3433;48.730;9.108;2022-10-17T05:22:13;13.40;99.90
6792;DHT22;3433;48.730;9.108;2022-10-17T05:24:40;13.50;99.90
6792;DHT22;3433;48.730;9.108;2022-10-17T05:27:07;13.40;99.90
6792;DHT22;3433;48.730;9.108;2022-10-17T05:29:34;13.50;99.90
6792;DHT22;3433;48.730;9.108;2022-10-17T05:32:01;13.50;99.90
6792;DHT22;3433;48.730;9.108;2022-10-17T05:34:27;13.50;99.90
6792;DHT22;3433;48.730;9.108;2022-10-17T05:36:54;13.50;99.90
6792;DHT22;3433;48.730;9.108;2022-10-17T05:39:24;13.50;99.90
6792;DHT22;3433;48.730;9.108;2022-10-17T05:41:51;13.50;99.90
6792;DHT22;3433;48.730;9.108;2022-10-17T05:44:18;13.50;99.90
6792;DHT22;3433;48.730;9.108;2022-10-17T05:46:47;13.50;99.90
6792;DHT22;3433;48.730;9.108;2022-10-17T05:49:14;13.50;99.90
6792;DHT22;3433;48.730;9.108;2022-10-17T05:51:44;13.60;99.90
6792;DHT22;3433;48.730;9.108;2022-10-17T05:54:11;13.60;99.90
6792;DHT22;3433;48.730;9.108;2022-10-17T05:56:39;13.60;99.90
6792;DHT22;3433;48.730;9.108;2022-10-17T05:59:06;13.60;99.90
6792;DHT22;3433;48.730;9.108;2022-10-17T06:01:33;13.60;99.90
6792;DHT22;3433;48.730;9.108;2022-10-17T06:04:00;13.60;99.90
6792;DHT22;3433;48.730;9.108;2022-10-17T06:06:27;13.60;99.90
6792;DHT22;3433;48.730;9.108;2022-10-17T06:08:53;13.60;99.90
6792;DHT22;3433;48.730;9.108;2022-10-17T06:11:20;13.60;99.90
6792;DHT22;3433;48.730;9.108;2022-10-17T06:13:49;13.60;99.90
6792;DHT22;3433;48.730;9.108;2022-10-17T06:16:15;13.60;99.90
6792;DHT22;3433;48.730;9.108;2022-10-17T06:18:42;13.60;99.90
6792;DHT22;3433;48.730;9.108;2022-10-17T06:21:11;13.60;99.90
6792;DHT22;3433;48.730;9.108;2022-10-17T06:23:38;13.60;99.90
6792;DHT22;3433;48.730;9.108;2022-10-17T06:26:06;13.60;99.90
6792;DHT22;3433;48.730;9.108;2022-10-17T06:28:33;13.70;99.90
6792;DHT22;3433;48.730;9.108;2022-10-17T06:31:05;13.70;99.90
6792;DHT22;3433;48.730;9.108;2022-10-17T06:33:32;13.70;99.90
6792;DHT22;3433;48.730;9.108;2022-10-17T06:35:59;13.80;99.90
6792;DHT22;3433;48.730;9.108;2022-10-17T06:38:26;13.80;99.90
6792;DHT22;3433;48.730;9.108;2022-10-17T06:40:53;13.80;99.90
6792;DHT22;3433;48.730;9.108;2022-10-17T06:43:22;13.80;99.90
6792;DHT22;3433;48.730;9.108;2022-10-17T06:45:49;13.80;99.90
6792;DHT22;3433;48.730;9.108;2022-10-17T06:48:17;13.90;99.90
6792;DHT22;3433;48.730;9.108;2022-10-17T06:50:44;14.00;99.90
6792;DHT22;3433;48.730;9.108;2022-10-17T06:53:11;14.00;99.90
6792;DHT22;3433;48.730;9.108;2022-10-17T06:55:38;14.10;99.90
6792;DHT22;3433;48.730;9.108;2022-10-17T06:58:05;14.20;99.90
6792;DHT22;3433;48.730;9.108;2022-10-17T07:00:32;14.20;99.90
6792;DHT22;3433;48.730;9.108;2022-10-17T07:02:59;14.30;99.90
6792;DHT22;3433;48.730;9.108;2022-10-17T07:05:27;14.40;99.90
6792;DHT22;3433;48.730;9.108;2022-10-17T07:07:54;14.40;99.90
6792;DHT22;3433;48.730;9.108;2022-10-17T07:10:21;14.50;99.90
6792;DHT22;3433;48.730;9.108;2022-10-17T07:12:48;14.60;99.90
6792;DHT22;3433;48.730;9.108;2022-10-17T07:15:15;14.70;99.90
6792;DHT22;3433;48.730;9.108;2022-10-17T07:17:42;14.90;99.90
6792;DHT22;3433;48.730;9.108;2022-10-17T07:20:09;15.00;99.90
6792;DHT22;3433;48.730;9.108;2022-10-17T07:22:38;15.10;99.90
6792;DHT22;3433;48.730;9.108;2022-10-17T07:25:06;15.20;99.90
6792;DHT22;3433;48.730;9.108;2022-10-17T07:27:33;15.40;99.90
6792;DHT22;3433;48.730;9.108;2022-10-17T07:30:00;15.50;99.90
6792;DHT22;3433;48.730;9.108;2022-10-17T07:32:27;15.70;99.90
6792;DHT22;3433;48.730;9.108;2022-10-17T07:34:54;15.80;99.90
6792;DHT22;3433;48.730;9.108;2022-10-17T07:37:20;16.00;99.90
6792;DHT22;3433;48.730;9.108;2022-10-17T07:39:49;16.20;99.90
6792;DHT22;3433;48.730;9.108;2022-10-17T07:42:16;16.30;99.90
6792;DHT22;3433;48.730;9.108;2022-10-17T07:44:43;16.50;99.90
6792;DHT22;3433;48.730;9.108;2022-10-17T07:47:11;16.70;99.90
6792;DHT22;3433;48.730;9.108;2022-10-17T07:49:38;16.80;99.90
6792;DHT22;3433;48.730;9.108;2022-10-17T07:52:08;17.00;99.90
6792;DHT22;3433;48.730;9.108;2022-10-17T07:54:35;17.20;99.90
6792;DHT22;3433;48.730;9.108;2022-10-17T07:57:04;17.40;99.90
6792;DHT22;3433;48.730;9.108;2022-10-17T07:59:32;17.60;99.90
6792;DHT22;3433;48.730;9.108;2022-10-17T08:01:59;17.70;99.90
6792;DHT22;3433;48.730;9.108;2022-10-17T08:04:26;17.90;99.90
6792;DHT22;3433;48.730;9.108;2022-10-17T08:06:53;18.00;99.90
6792;DHT22;3433;48.730;9.108;2022-10-17T08:09:20;18.20;99.90
6792;DHT22;3433;48.730;9.108;2022-10-17T08:11:47;18.30;99.90
6792;DHT22;3433;48.730;9.108;2022-10-17T08:14:16;18.50;99.90
6792;DHT22;3433;48.730;9.108;2022-10-17T08:16:43;18.50;99.90
6792;DHT22;3433;48.730;9.108;2022-10-17T08:19:09;18.60;99.90
6792;DHT22;3433;48.730;9.108;2022-10-17T08:21:37;18.80;99.90
6792;DHT22;3433;48.730;9.108;2022-10-17T08:24:05;19.00;99.90
6792;DHT22;3433;48.730;9.108;2022-10-17T08:26:32;19.10;99.90
6792;DHT22;3433;48.730;9.108;2022-10-17T08:28:59;19.20;99.90
6792;DHT22;3433;48.730;9.108;2022-10-17T08:31:28;19.30;99.90
6792;DHT22;3433;48.730;9.108;2022-10-17T08:33:55;19.30;99.90
6792;DHT22;3433;48.730;9.108;2022-10-17T08:36:21;19.50;99.90
6792;DHT22;3433;48.730;9.108;2022-10-17T08:38:48;19.60;99.90
6792;DHT22;3433;48.730;9.108;2022-10-17T08:41:22;19.70;99.90
6792;DHT22;3433;48.730;9.108;2022-10-17T08:44:00;19.90;99.90
6792;DHT22;3433;48.730;9.108;2022-10-17T08:46:32;19.90;99.90
6792;DHT22;3433;48.730;9.108;2022-10-17T08:49:02;20.10;99.90
6792;DHT22;3433;48.730;9.108;2022-10-17T08:51:32;20.20;99.90
6792;DHT22;3433;48.730;9.108;2022-10-17T08:54:04;20.40;99.90
6792;DHT22;3433;48.730;9.108;2022-10-17T08:56:38;20.50;99.90
6792;DHT22;3433;48.730;9.108;2022-10-17T08:59:10;20.60;99.90
6792;DHT22;3433;48.730;9.108;2022-10-17T09:01:45;20.80;99.90
6792;DHT22;3433;48.730;9.108;2022-10-17T09:04:36;20.90;99.90
6792;DHT22;3433;48.730;9.108;2022-10-17T09:07:12;21.00;99.90
6792;DHT22;3433;48.730;9.108;2022-10-17T09:09:45;21.10;99.90
6792;DHT22;3433;48.730;9.108;2022-10-17T09:12:18;21.30;99.90
6792;DHT22;3433;48.730;9.108;2022-10-17T09:17:50;21.40;99.90
6792;DHT22;3433;48.730;9.108;2022-10-17T09:20:20;21.50;99.90
6792;DHT22;3433;48.730;9.108;2022-10-17T09:22:51;21.60;99.90
6792;DHT22;3433;48.730;9.108;2022-10-17T09:25:21;21.70;99.90
6792;DHT22;3433;48.730;9.108;2022-10-17T09:27:50;21.80;99.90
6792;DHT22;3433;48.730;9.108;2022-10-17T09:30:34;22.00;99.90
6792;DHT22;3433;48.730;9.108;2022-10-17T09:33:10;22.10;99.90
6792;DHT22;3433;48.730;9.108;2022-10-17T09:35:38;22.20;99.90
6792;DHT22;3433;48.730;9.108;2022-10-17T09:38:15;22.20;99.90
6792;DHT22;3433;48.730;9.108;2022-10-17T09:40:43;22.30;99.90
6792;DHT22;3433;48.730;9.108;2022-10-17T09:43:12;22.40;99.90
6792;DHT22;3433;48.730;9.108;2022-10-17T09:45:44;22.50;99.90
6792;DHT22;3433;48.730;9.108;2022-10-17T09:48:21;22.70;99.90
6792;DHT22;3433;48.730;9.108;2022-10-17T09:50:50;22.70;99.90
6792;DHT22;3433;48.730;9.108;2022-10-17T09:53:21;22.70;99.90
6792;DHT22;3433;48.730;9.108;2022-10-17T09:55:51;22.80;99.90
6792;DHT22;3433;48.730;9.108;2022-10-17T09:58:20;22.80;99.90
6792;DHT22;3433;48.730;9.108;2022-10-17T10:00:48;22.80;99.90
6792;DHT22;3433;48.730;9.108;2022-10-17T10:03:18;23.00;99.90
6792;DHT22;3433;48.730;9.108;2022-10-17T10:06:04;22.90;99.90
6792;DHT22;3433;48.730;9.108;2022-10-17T10:08:33;23.00;99.90
6792;DHT22;3433;48.730;9.108;2022-10-17T10:11:02;23.20;99.90
6792;DHT22;3433;48.730;9.108;2022-10-17T10:13:30;23.20;99.90
6792;DHT22;3433;48.730;9.108;2022-10-17T10:16:17;23.40;99.90
6792;DHT22;3433;48.730;9.108;2022-10-17T10:18:50;23.50;99.90
6792;DHT22;3433;48.730;9.108;2022-10-17T10:21:18;23.50;99.90
6792;DHT22;3433;48.730;9.108;2022-10-17T10:24:02;23.60;99.90
6792;DHT22;3433;48.730;9.108;2022-10-17T10:26:34;23.50;99.90
6792;DHT22;3433;48.730;9.108;2022-10-17T10:29:05;23.60;99.90
6792;DHT22;3433;48.730;9.108;2022-10-17T10:31:35;23.60;99.90
6792;DHT22;3433;48.730;9.108;2022-10-17T10:34:15;23.80;99.90
6792;DHT22;3433;48.730;9.108;2022-10-17T10:36:52;23.90;99.90
6792;DHT22;3433;48.730;9.108;2022-10-17T10:39:27;24.00;99.90
6792;DHT22;3433;48.730;9.108;2022-10-17T10:41:56;23.90;99.90
6792;DHT22;3433;48.730;9.108;2022-10-17T10:44:25;24.00;99.90
6792;DHT22;3433;48.730;9.108;2022-10-17T10:47:16;24.00;99.90
6792;DHT22;3433;48.730;9.108;2022-10-17T10:49:45;24.10;99.50
6792;DHT22;3433;48.730;9.108;2022-10-17T10:52:27;24.30;99.90
6792;DHT22;3433;48.730;9.108;2022-10-17T10:55:02;24.30;99.50
6792;DHT22;3433;48.730;9.108;2022-10-17T10:57:33;24.50;99.20
6792;DHT22;3433;48.730;9.108;2022-10-17T11:00:05;24.70;99.90
6792;DHT22;3433;48.730;9.108;2022-10-17T11:02:37;24.70;99.90
6792;DHT22;3433;48.730;9.108;2022-10-17T11:05:13;24.80;99.30
6792;DHT22;3433;48.730;9.108;2022-10-17T11:07:48;24.90;98.60
6792;DHT22;3433;48.730;9.108;2022-10-17T11:10:21;24.90;96.90
6792;DHT22;3433;48.730;9.108;2022-10-17T11:12:51;25.00;98.50
6792;DHT22;3433;48.730;9.108;2022-10-17T11:15:24;25.30;98.40
6792;DHT22;3433;48.730;9.108;2022-10-17T11:17:56;25.40;97.40
6792;DHT22;3433;48.730;9.108;2022-10-17T11:20:32;25.60;97.70
6792;DHT22;3433;48.730;9.108;2022-10-17T11:23:09;25.80;96.20
6792;DHT22;3433;48.730;9.108;2022-10-17T11:25:44;25.90;96.10
6792;DHT22;3433;48.730;9.108;2022-10-17T11:28:13;26.10;97.70
6792;DHT22;3433;48.730;9.108;2022-10-17T11:30:45;26.30;97.70
6792;DHT22;3433;48.730;9.108;2022-10-17T11:33:19;26.40;96.40
6792;DHT22;3433;48.730;9.108;2022-10-17T11:35:51;26.50;97.50
6792;DHT22;3433;48.730;9.108;2022-10-17T11:38:24;26.60;95.80
6792;DHT22;3433;48.730;9.108;2022-10-17T11:40:55;26.60;95.40
6792;DHT22;3433;48.730;9.108;2022-10-17T11:43:27;26.80;96.50
6792;DHT22;3433;48.730;9.108;2022-10-17T11:45:58;27.00;97.10
6792;DHT22;3433;48.730;9.108;2022-10-17T11:48:29;27.10;94.80
6792;DHT22;3433;48.730;9.108;2022-10-17T11:51:04;27.30;95.30
6792;DHT22;3433;48.730;9.108;2022-10-17T11:53:44;27.20;93.40
6792;DHT22;3433;48.730;9.108;2022-10-17T11:56:15;27.30;94.20
6792;DHT22;3433;48.730;9.108;2022-10-17T11:58:48;27.30;95.10
6792;DHT22;3433;48.730;9.108;2022-10-17T12:01:23;27.40;94.30
6792;DHT22;3433;48.730;9.108;2022-10-17T12:04:11;27.50;94.20
6792;DHT22;3433;48.730;9.108;2022-10-17T12:06:58;27.70;94.50
6792;DHT22;3433;48.730;9.108;2022-10-17T12:09:35;27.70;93.10
6792;DHT22;3433;48.730;9.108;2022-10-17T12:12:06;28.00;95.30
6792;DHT22;3433;48.730;9.108;2022-10-17T12:14:40;28.00;93.50
6792;DHT22;3433;48.730;9.108;2022-10-17T12:17:28;28.20;95.50
6792;DHT22;3433;48.730;9.108;2022-10-17T12:20:16;28.30;93.10
6792;DHT22;3433;48.730;9.108;2022-10-17T12:22:52;28.40;92.20
6792;DHT22;3433;48.730;9.108;2022-10-17T12:25:22;28.80;94.70
6792;DHT22;3433;48.730;9.108;2022-10-17T12:28:09;28.90;91.80
6792;DHT22;3433;48.730;9.108;2022-10-17T12:30:49;28.80;93.50
6792;DHT22;3433;48.730;9.108;2022-10-17T12:33:18;29.20;93.30
6792;DHT22;3433;48.730;9.108;2022-10-17T12:35:47;29.20;91.70
6792;DHT22;3433;48.730;9.108;2022-10-17T12:38:22;29.30;92.00
6792;DHT22;3433;48.730;9.108;2022-10-17T12:40:57;29.60;93.60
6792;DHT22;3433;48.730;9.108;2022-10-17T12:43:46;29.70;94.60
6792;DHT22;3433;48.730;9.108;2022-10-17T12:46:41;29.80;90.00
6792;DHT22;3433;48.730;9.108;2022-10-17T12:49:41;29.70;90.60
6792;DHT22;3433;48.730;9.108;2022-10-17T12:55:15;29.80;90.20
6792;DHT22;3433;48.730;9.108;2022-10-17T12:57:49;30.00;92.40
6792;DHT22;3433;48.730;9.108;2022-10-17T13:00:21;30.30;93.40
6792;DHT22;3433;48.730;9.108;2022-10-17T13:02:52;30.40;91.50
6792;DHT22;3433;48.730;9.108;2022-10-17T13:05:26;30.40;91.20
6792;DHT22;3433;48.730;9.108;2022-10-17T13:07:54;30.60;90.70
6792;DHT22;3433;48.730;9.108;2022-10-17T13:10:26;30.40;90.30
6792;DHT22;3433;48.730;9.108;2022-10-17T13:13:02;30.40;88.20
6792;DHT22;3433;48.730;9.108;2022-10-17T13:15:30;30.10;85.00
6792;DHT22;3433;48.730;9.108;2022-10-17T13:17:58;29.90;88.50
6792;DHT22;3433;48.730;9.108;2022-10-17T13:20:27;29.90;86.30
6792;DHT22;3433;48.730;9.108;2022-10-17T13:22:55;29.80;87.10
6792;DHT22;3433;48.730;9.108;2022-10-17T13:25:25;29.80;88.20
6792;DHT22;3433;48.730;9.108;2022-10-17T13:28:05;29.80;89.20
6792;DHT22;3433;48.730;9.108;2022-10-17T13:30:34;29.80;87.90
6792;DHT22;3433;48.730;9.108;2022-10-17T13:33:01;29.90;90.60
6792;DHT22;3433;48.730;9.108;2022-10-17T13:35:30;30.00;91.40
6792;DHT22;3433;48.730;9.108;2022-10-17T13:38:01;30.00;92.10
6792;DHT22;3433;48.730;9.108;2022-10-17T13:40:41;30.20;92.50
6792;DHT22;3433;48.730;9.108;2022-10-17T13:43:13;30.30;92.90
6792;DHT22;3433;48.730;9.108;2022-10-17T13:45:45;30.40;94.00
6792;DHT22;3433;48.730;9.108;2022-10-17T13:48:18;30.40;93.00
6792;DHT22;3433;48.730;9.108;2022-10-17T13:50:48;30.30;94.20
6792;DHT22;3433;48.730;9.108;2022-10-17T13:53:19;30.20;93.40
6792;DHT22;3433;48.730;9.108;2022-10-17T13:55:55;30.20;94.00
6792;DHT22;3433;48.730;9.108;2022-10-17T13:58:23;30.10;92.90
6792;DHT22;3433;48.730;9.108;2022-10-17T14:00:50;30.10;94.30
6792;DHT22;3433;48.730;9.108;2022-10-17T14:03:19;30.00;94.10
6792;DHT22;3433;48.730;9.108;2022-10-17T14:06:11;29.90;94.50
6792;DHT22;3433;48.730;9.108;2022-10-17T14:08:45;29.90;92.70
6792;DHT22;3433;48.730;9.108;2022-10-17T14:11:21;29.80;94.20
6792;DHT22;3433;48.730;9.108;2022-10-17T14:13:49;29.70;94.20
6792;DHT22;3433;48.730;9.108;2022-10-17T14:16:17;29.60;93.80
6792;DHT22;3433;48.730;9.108;2022-10-17T14:18:46;29.60;94.20
6792;DHT22;3433;48.730;9.108;2022-10-17T14:21:19;29.60;94.40
6792;DHT22;3433;48.730;9.108;2022-10-17T14:23:47;29.50;92.40
6792;DHT22;3433;48.730;9.108;2022-10-17T14:26:17;29.40;93.80
6792;DHT22;3433;48.730;9.108;2022-10-17T14:28:48;29.30;93.40
6792;DHT22;3433;48.730;9.108;2022-10-17T14:31:29;29.20;94.30
6792;DHT22;3433;48.730;9.108;2022-10-17T14:33:57;29.10;92.60
6792;DHT22;3433;48.730;9.108;2022-10-17T14:36:39;29.00;93.90
6792;DHT22;3433;48.730;9.108;2022-10-17T14:39:15;28.60;90.50
6792;DHT22;3433;48.730;9.108;2022-10-17T14:41:45;28.50;93.80
6792;DHT22;3433;48.730;9.108;2022-10-17T14:44:18;28.40;92.60
6792;DHT22;3433;48.730;9.108;2022-10-17T14:46:48;28.30;94.20
6792;DHT22;3433;48.730;9.108;2022-10-17T14:49:17;28.20;94.40
6792;DHT22;3433;48.730;9.108;2022-10-17T14:52:10;28.20;94.60
6792;DHT22;3433;48.730;9.108;2022-10-17T14:54:37;27.90;93.20
6792;DHT22;3433;48.730;9.108;2022-10-17T14:57:16;27.90;94.70
6792;DHT22;3433;48.730;9.108;2022-10-17T14:59:45;27.80;94.50
6792;DHT22;3433;48.730;9.108;2022-10-17T15:02:12;27.70;94.00
6792;DHT22;3433;48.730;9.108;2022-10-17T15:04:39;27.60;95.10
6792;DHT22;3433;48.730;9.108;2022-10-17T15:07:08;27.50;94.90
6792;DHT22;3433;48.730;9.108;2022-10-17T15:09:35;27.30;95.10
6792;DHT22;3433;48.730;9.108;2022-10-17T15:12:05;27.20;94.40
6792;DHT22;3433;48.730;9.108;2022-10-17T15:14:34;27.00;95.30
6792;DHT22;3433;48.730;9.108;2022-10-17T15:17:00;26.80;94.90
6792;DHT22;3433;48.730;9.108;2022-10-17T15:19:27;26.60;95.10
6792;DHT22;3433;48.730;9.108;2022-10-17T15:21:54;26.40;95.30
6792;DHT22;3433;48.730;9.108;2022-10-17T15:24:21;26.30;95.50
6792;DHT22;3433;48.730;9.108;2022-10-17T15:26:48;26.10;95.00
6792;DHT22;3433;48.730;9.108;2022-10-17T15:29:15;26.00;95.70
6792;DHT22;3433;48.730;9.108;2022-10-17T15:31:43;25.90;95.00
6792;DHT22;3433;48.730;9.108;2022-10-17T15:34:10;25.70;95.70
6792;DHT22;3433;48.730;9.108;2022-10-17T15:36:39;25.60;95.70
6792;DHT22;3433;48.730;9.108;2022-10-17T15:39:08;25.50;95.90
6792;DHT22;3433;48.730;9.108;2022-10-17T15:41:35;25.40;95.90
6792;DHT22;3433;48.730;9.108;2022-10-17T15:44:02;25.40;96.10
6792;DHT22;3433;48.730;9.108;2022-10-17T15:46:32;25.30;96.20
6792;DHT22;3433;48.730;9.108;2022-10-17T15:49:03;25.10;96.20
6792;DHT22;3433;48.730;9.108;2022-10-17T15:51:30;25.00;96.20
6792;DHT22;3433;48.730;9.108;2022-10-17T15:53:57;25.00;96.40
6792;DHT22;3433;48.730;9.108;2022-10-17T15:56:28;24.80;96.50
6792;DHT22;3433;48.730;9.108;2022-10-17T15:58:56;24.80;96.70
6792;DHT22;3433;48.730;9.108;2022-10-17T16:01:27;24.70;96.90
6792;DHT22;3433;48.730;9.108;2022-10-17T16:03:54;24.60;96.90
6792;DHT22;3433;48.730;9.108;2022-10-17T16:06:23;24.50;97.00
6792;DHT22;3433;48.730;9.108;2022-10-17T16:08:51;24.30;96.90
6792;DHT22;3433;48.730;9.108;2022-10-17T16:11:27;24.20;97.00
6792;DHT22;3433;48.730;9.108;2022-10-17T16:13:58;24.10;97.10
6792;DHT22;3433;48.730;9.108;2022-10-17T16:16:25;23.90;97.10
6792;DHT22;3433;48.730;9.108;2022-10-17T16:18:52;23.80;97.10
6792;DHT22;3433;48.730;9.108;2022-10-17T16:21:22;23.70;97.30
6792;DHT22;3433;48.730;9.108;2022-10-17T16:23:51;23.60;97.40
6792;DHT22;3433;48.730;9.108;2022-10-17T16:26:18;23.50;97.40
6792;DHT22;3433;48.730;9.108;2022-10-17T16:28:46;23.30;97.50
6792;DHT22;3433;48.730;9.108;2022-10-17T16:31:21;23.20;97.50
6792;DHT22;3433;48.730;9.108;2022-10-17T16:33:50;23.00;97.60